메인 페이지
METAR-TAF:

METAR-TAF

공항 :

El Centro, 캘리포니아, 미국

위도: 32-49-30N, 경도: 115-39-38W, 고도: 13m

현재 날씨관측

예보는 42분 전, 19:56시(UTC)에 발표되었습니다.
여러 방향의 바람 6kt
온도 40°C
습도 12%
기압 1008 hPa
시정: 16.1km
고도 25000ft 상공 구름 조금

METAR: KNJK 131956Z VRB06KT 10SM FEW250 40/05 A2978 RMK AO2 SLP100 T04000050 $

시각: 13:38 (20:38 UTC)

예보

예보 대상 시간: 13일 15시부터 14일 15시까지 (UTC)
서북서7kt
시정 10km 이상
고도 15000ft 상공 구름 조금
고도 25000ft 상공 구름 조금
전환 중
13일 17시부터 13일 18시까지 (UTC)
남남동10kt
시정 10km 이상
맑음
13일 2300시부터 (UTC)
서남서18kt, 순간 최대 풍속 30kt
시정 10km 이상
고도 15000ft 상공 구름 보통
14일 0700시부터 (UTC)
9kt
시정 10km 이상
고도 15000ft 상공 구름 조금

TAF: KNJK 1315/1415 30007KT 9999 FEW150 FEW250 QNH2980INS BECMG 1317/1318 15010KT 9999 SKC QNH2971INS FM132300 25018G30KT 9999 SCT150 520009 QNH2969INS FM140700 26009KT 9999 FEW150 520009 QNH2979INS TX41/1323Z TN23/1413Z FS30130

4,000개 이상의 공항 관측 자료 및 예보 (METAR 및 TAF 보고).

지도상에서 검색 가능한 기상관측소가 노란 점과 빨간 점으로 표시되어 있습니다.

기상관측소 명을 보려면 표시 위로 마우스를 이동하세요.

날씨 관측과 예보를 보려면 클릭하세요.

지도 변경 : 확대하려면 엑스 표시가 있는 녹색 버튼, 축소하려면 빼기 표시가 있는 녹색 버튼, 다음 페이지의 지도를 보려면 녹색 화살표를 클릭하세요.


METAR-TAF: